createdAt,value
2022-12-04T00:01:27.081Z,54.03
2022-12-04T00:03:56.029Z,52.00
2022-12-04T00:06:23.959Z,53.17
2022-12-04T00:08:52.181Z,51.83
2022-12-04T00:11:22.569Z,54.50
2022-12-04T00:13:53.907Z,47.93
2022-12-04T00:16:28.076Z,53.63
2022-12-04T00:18:55.973Z,49.50
2022-12-04T00:24:45.311Z,50.40
2022-12-04T00:27:14.067Z,49.00
2022-12-04T00:29:41.356Z,52.43
2022-12-04T00:32:11.660Z,45.13
2022-12-04T00:34:40.264Z,50.63
2022-12-04T00:37:08.050Z,42.43
2022-12-04T00:39:35.226Z,44.50
2022-12-04T00:42:02.708Z,42.40
2022-12-04T00:44:31.703Z,44.90
2022-12-04T00:46:59.263Z,44.30
2022-12-04T00:49:26.582Z,42.33
2022-12-04T00:51:54.810Z,41.40
2022-12-04T00:54:23.160Z,40.37
2022-12-04T00:56:51.155Z,46.20
2022-12-04T00:59:29.275Z,41.60
2022-12-04T01:01:56.509Z,39.27
2022-12-04T01:04:24.082Z,41.80
2022-12-04T01:06:51.006Z,39.77
2022-12-04T01:09:18.853Z,40.60
2022-12-04T01:11:46.415Z,35.70
2022-12-04T01:14:13.430Z,38.80
2022-12-04T01:16:40.692Z,39.77
2022-12-04T01:19:11.824Z,41.30
2022-12-04T01:21:39.329Z,36.70
2022-12-04T01:24:07.042Z,39.60
2022-12-04T01:26:34.237Z,32.53
2022-12-04T01:29:02.217Z,41.53
2022-12-04T01:31:29.652Z,37.90
2022-12-04T01:33:56.947Z,35.40
2022-12-04T01:36:30.511Z,34.53
2022-12-04T01:38:57.876Z,37.47
2022-12-04T01:41:30.570Z,35.83
2022-12-04T01:44:31.408Z,33.70
2022-12-04T01:47:00.483Z,35.10
2022-12-04T01:49:39.302Z,34.17
2022-12-04T01:52:09.863Z,31.47
2022-12-04T01:54:42.339Z,33.07
2022-12-04T01:57:21.457Z,34.47
2022-12-04T01:59:49.958Z,30.27
2022-12-04T02:02:22.876Z,29.63
2022-12-04T02:04:50.438Z,32.77
2022-12-04T02:07:17.433Z,30.80
2022-12-04T02:09:45.603Z,35.83
2022-12-04T02:12:59.001Z,30.60
2022-12-04T02:15:46.238Z,28.50
2022-12-04T02:18:59.388Z,31.10
2022-12-04T02:21:42.748Z,31.37
2022-12-04T02:24:50.608Z,28.37
2022-12-04T02:28:01.181Z,34.63
2022-12-04T02:30:30.934Z,28.30
2022-12-04T02:33:41.569Z,32.57
2022-12-04T02:36:22.763Z,31.80
2022-12-04T02:38:58.968Z,31.20
2022-12-04T02:41:36.160Z,37.30
2022-12-04T02:44:09.960Z,34.10
2022-12-04T02:46:45.030Z,31.90
2022-12-04T02:49:18.924Z,33.97
2022-12-04T02:51:48.846Z,37.97
2022-12-04T02:54:34.628Z,34.27
2022-12-04T02:57:06.001Z,32.27
2022-12-04T02:59:38.848Z,34.47
2022-12-04T03:02:15.034Z,36.93
2022-12-04T03:04:44.021Z,32.67
2022-12-04T03:07:16.315Z,37.00
2022-12-04T03:09:50.602Z,32.70
2022-12-04T03:12:26.432Z,34.07
2022-12-04T03:15:02.596Z,33.17
2022-12-04T03:17:36.090Z,32.37
2022-12-04T03:20:09.861Z,32.80
2022-12-04T03:22:41.638Z,33.77
2022-12-04T03:25:10.313Z,35.83
2022-12-04T03:28:12.963Z,32.20
2022-12-04T03:30:50.364Z,33.63
2022-12-04T03:33:27.514Z,38.03
2022-12-04T03:36:24.078Z,35.27
2022-12-04T03:39:18.232Z,31.90
2022-12-04T03:42:21.826Z,35.60
2022-12-04T03:45:28.615Z,33.13
2022-12-04T03:48:11.480Z,30.60
2022-12-04T03:50:56.123Z,32.53
2022-12-04T03:53:47.814Z,32.70
2022-12-04T03:56:30.569Z,32.90
2022-12-04T03:59:06.786Z,31.00
2022-12-04T04:01:38.773Z,32.93
2022-12-04T04:04:10.417Z,31.27
2022-12-04T04:06:42.519Z,28.60
2022-12-04T04:09:20.283Z,33.27
2022-12-04T04:12:00.952Z,30.23
2022-12-04T04:15:09.378Z,31.27
2022-12-04T04:18:01.941Z,29.10
2022-12-04T04:20:57.590Z,29.70
2022-12-04T04:23:44.714Z,27.67
2022-12-04T04:26:13.524Z,29.50
2022-12-04T04:28:42.747Z,29.33
2022-12-04T04:31:30.136Z,33.93
2022-12-04T04:34:37.049Z,40.70
2022-12-04T04:37:15.562Z,33.60
2022-12-04T04:40:32.284Z,30.10
2022-12-04T04:43:10.542Z,28.43
2022-12-04T04:45:50.830Z,31.00
2022-12-04T04:48:41.940Z,31.10
2022-12-04T04:51:09.932Z,29.83
2022-12-04T04:53:45.529Z,27.40
2022-12-04T04:56:13.156Z,26.90
2022-12-04T04:58:40.386Z,30.07
2022-12-04T05:01:14.040Z,32.17
2022-12-04T05:03:42.187Z,28.50
2022-12-04T05:06:09.789Z,32.40
2022-12-04T05:08:36.921Z,28.73
2022-12-04T05:11:04.728Z,33.47
2022-12-04T05:13:33.202Z,28.50
2022-12-04T05:16:02.673Z,33.23
2022-12-04T05:18:31.242Z,28.57
2022-12-04T05:20:58.298Z,28.37
2022-12-04T05:23:25.968Z,25.60
2022-12-04T05:26:02.226Z,26.20
2022-12-04T05:28:29.231Z,27.83
2022-12-04T05:30:57.968Z,26.53
2022-12-04T05:33:25.576Z,22.77
2022-12-04T05:35:59.153Z,24.50
2022-12-04T05:38:26.401Z,26.00
2022-12-04T05:40:53.377Z,25.57
2022-12-04T05:43:20.480Z,23.57
2022-12-04T05:45:47.437Z,24.20
2022-12-04T05:48:14.348Z,24.07
2022-12-04T05:50:41.481Z,24.03
2022-12-04T05:53:09.214Z,25.00
2022-12-04T05:55:36.305Z,21.60
2022-12-04T05:58:03.560Z,23.43
2022-12-04T06:00:30.849Z,23.97
2022-12-04T06:02:58.358Z,25.40
2022-12-04T06:05:25.446Z,27.27
2022-12-04T06:07:52.509Z,24.83
2022-12-04T06:10:19.475Z,27.10
2022-12-04T06:12:46.387Z,26.00
2022-12-04T06:15:13.334Z,23.17
2022-12-04T06:17:40.285Z,25.43
2022-12-04T06:20:11.428Z,24.60
2022-12-04T06:22:38.834Z,24.47
2022-12-04T06:25:07.076Z,22.63
2022-12-04T06:27:34.119Z,23.90
2022-12-04T06:30:01.890Z,24.20
2022-12-04T06:32:29.016Z,23.33
2022-12-04T06:34:56.150Z,21.40
2022-12-04T06:37:24.978Z,22.77
2022-12-04T06:39:52.148Z,21.87
2022-12-04T06:42:19.197Z,23.87
2022-12-04T06:44:46.176Z,21.53
2022-12-04T06:47:13.077Z,22.47
2022-12-04T06:49:40.190Z,22.10
2022-12-04T06:52:07.291Z,23.57
2022-12-04T06:54:34.179Z,20.87
2022-12-04T06:57:01.083Z,24.60
2022-12-04T06:59:28.135Z,18.90
2022-12-04T07:01:55.270Z,20.00
2022-12-04T07:04:24.089Z,21.10
2022-12-04T07:06:51.045Z,21.60
2022-12-04T07:09:18.430Z,18.43
2022-12-04T07:11:45.852Z,21.70
2022-12-04T07:14:14.039Z,18.50
2022-12-04T07:16:42.589Z,18.10
2022-12-04T07:19:11.278Z,20.30
2022-12-04T07:21:38.414Z,18.20
2022-12-04T07:24:05.954Z,19.83
2022-12-04T07:26:33.167Z,20.07
2022-12-04T07:29:00.699Z,18.47
2022-12-04T07:31:30.042Z,16.57
2022-12-04T07:33:58.281Z,18.07
2022-12-04T07:36:26.502Z,20.87
2022-12-04T07:38:55.667Z,18.83
2022-12-04T07:41:23.326Z,23.47
2022-12-04T07:43:50.466Z,19.80
2022-12-04T07:46:24.378Z,17.43
2022-12-04T07:48:51.442Z,20.57
2022-12-04T07:51:23.614Z,19.07
2022-12-04T07:53:53.281Z,16.40
2022-12-04T07:56:21.453Z,18.37
2022-12-04T07:58:48.548Z,19.30
2022-12-04T08:01:23.671Z,16.60
2022-12-04T08:03:55.234Z,18.60
2022-12-04T08:06:24.271Z,18.17
2022-12-04T08:08:52.105Z,19.10
2022-12-04T08:11:22.540Z,20.00
2022-12-04T08:13:53.982Z,20.87
2022-12-04T08:16:21.026Z,20.57
2022-12-04T08:18:48.746Z,18.77
2022-12-04T08:21:20.901Z,19.00
2022-12-04T08:23:50.136Z,21.77
2022-12-04T08:26:18.091Z,18.53
2022-12-04T08:28:45.234Z,19.17
2022-12-04T08:31:17.361Z,19.40
2022-12-04T08:33:46.584Z,19.93
2022-12-04T08:36:16.729Z,20.20
2022-12-04T08:38:43.783Z,20.80
2022-12-04T08:41:13.517Z,21.47
2022-12-04T08:43:40.817Z,21.00
2022-12-04T08:46:12.314Z,19.37
2022-12-04T08:48:45.450Z,22.53
2022-12-04T08:51:27.450Z,21.97
2022-12-04T08:53:56.172Z,19.83
2022-12-04T08:56:24.559Z,18.97
2022-12-04T08:58:51.552Z,18.37
2022-12-04T09:01:19.167Z,19.13
2022-12-04T09:03:46.209Z,17.53
2022-12-04T09:06:15.318Z,17.57
2022-12-04T09:08:43.175Z,21.30
2022-12-04T09:11:22.411Z,20.40
2022-12-04T09:13:49.560Z,19.70
2022-12-04T09:16:20.053Z,16.77
2022-12-04T09:18:47.507Z,17.53
2022-12-04T09:21:16.538Z,19.47
2022-12-04T09:23:44.014Z,16.90
2022-12-04T09:26:40.537Z,19.23
2022-12-04T09:29:08.994Z,18.97
2022-12-04T09:31:37.179Z,17.23
2022-12-04T09:34:04.607Z,17.43
2022-12-04T09:36:33.929Z,16.77
2022-12-04T09:39:00.877Z,17.90
2022-12-04T09:42:03.746Z,15.80
2022-12-04T09:44:37.158Z,18.60
2022-12-04T09:47:12.463Z,17.60
2022-12-04T09:49:55.984Z,17.00
2022-12-04T09:53:03.524Z,13.63
2022-12-04T09:55:32.844Z,20.57
2022-12-04T09:58:03.541Z,18.80
2022-12-04T10:00:33.789Z,15.03
2022-12-04T10:03:07.225Z,16.10
2022-12-04T10:05:48.462Z,14.57
2022-12-04T10:08:31.591Z,12.33
2022-12-04T10:11:32.813Z,16.27
2022-12-04T10:14:24.276Z,16.00
2022-12-04T10:17:19.972Z,14.83
2022-12-04T10:20:28.603Z,14.80
2022-12-04T10:23:35.174Z,14.17
2022-12-04T10:26:05.718Z,14.90
2022-12-04T10:28:39.753Z,17.00
2022-12-04T10:31:13.694Z,16.43
2022-12-04T10:33:58.817Z,14.40
2022-12-04T10:36:30.826Z,16.10
2022-12-04T10:39:18.651Z,18.50
2022-12-04T10:42:05.657Z,17.80
2022-12-04T10:44:32.910Z,17.30
2022-12-04T10:47:02.564Z,18.80
2022-12-04T10:49:33.728Z,16.73
2022-12-04T10:52:00.979Z,14.80
2022-12-04T10:55:14.290Z,16.10
2022-12-04T10:57:46.665Z,16.87
2022-12-04T11:00:45.873Z,15.93
2022-12-04T11:03:28.519Z,24.73
2022-12-04T11:06:01.956Z,12.60
2022-12-04T11:08:42.784Z,17.10
2022-12-04T11:11:13.405Z,18.20
2022-12-04T11:13:41.639Z,14.13
2022-12-04T11:16:37.884Z,19.20
2022-12-04T11:19:31.556Z,16.53
2022-12-04T11:22:16.538Z,15.40
2022-12-04T11:24:49.918Z,16.07
2022-12-04T11:27:23.164Z,18.80
2022-12-04T11:29:51.031Z,19.07
2022-12-04T11:32:27.180Z,13.30
2022-12-04T11:34:58.427Z,14.73
2022-12-04T11:37:39.234Z,17.13
2022-12-04T11:40:19.372Z,16.93
2022-12-04T11:43:05.537Z,14.97
2022-12-04T11:45:32.992Z,15.93
2022-12-04T11:48:03.604Z,14.13
2022-12-04T11:50:41.034Z,13.63
2022-12-04T11:53:43.616Z,13.23
2022-12-04T11:56:33.919Z,11.40
2022-12-04T11:59:21.818Z,13.83
2022-12-04T12:02:22.420Z,12.67
2022-12-04T12:05:24.945Z,11.87
2022-12-04T12:08:29.771Z,12.83
2022-12-04T12:11:35.183Z,14.10
2022-12-04T12:14:21.333Z,13.17
2022-12-04T12:16:58.881Z,14.33
2022-12-04T12:20:16.493Z,13.73
2022-12-04T12:23:38.675Z,12.20
2022-12-04T12:26:11.161Z,11.73
2022-12-04T12:29:28.708Z,13.53
2022-12-04T12:32:04.177Z,13.20
2022-12-04T12:34:44.105Z,13.07
2022-12-04T12:37:11.279Z,18.57
2022-12-04T12:39:50.625Z,14.10
2022-12-04T12:42:38.124Z,20.00
2022-12-04T12:45:17.322Z,22.43
2022-12-04T12:47:50.521Z,16.87
2022-12-04T12:50:30.016Z,18.53
2022-12-04T12:53:11.899Z,17.30
2022-12-04T12:55:46.347Z,17.33
2022-12-04T12:58:45.373Z,18.60
2022-12-04T13:01:50.260Z,16.43
2022-12-04T13:04:49.395Z,16.67
2022-12-04T13:07:49.535Z,19.40
2022-12-04T13:10:35.455Z,16.63
2022-12-04T13:13:17.939Z,17.80
2022-12-04T13:16:10.898Z,17.70
2022-12-04T13:18:48.494Z,18.97
2022-12-04T13:21:45.493Z,20.37
2022-12-04T13:24:31.571Z,19.40
2022-12-04T13:27:32.339Z,15.47
2022-12-04T13:30:13.803Z,18.50
2022-12-04T13:33:30.348Z,15.87
2022-12-04T13:36:31.025Z,17.03
2022-12-04T13:39:41.545Z,24.47
2022-12-04T13:42:23.143Z,20.50
2022-12-04T13:45:06.522Z,28.97
2022-12-04T13:47:36.376Z,26.33
2022-12-04T13:50:35.859Z,27.87
2022-12-04T13:53:03.469Z,27.47
2022-12-04T13:55:36.717Z,28.93
2022-12-04T13:58:34.975Z,25.63
2022-12-04T14:01:06.952Z,29.63
2022-12-04T14:03:49.820Z,29.63
2022-12-04T14:06:30.942Z,30.30
2022-12-04T14:09:05.007Z,30.90
2022-12-04T14:11:44.226Z,32.80
2022-12-04T14:14:29.301Z,29.43
2022-12-04T14:16:59.351Z,37.30
2022-12-04T14:19:35.601Z,32.40
2022-12-04T14:22:03.354Z,31.33
2022-12-04T14:24:39.586Z,31.23
2022-12-04T14:27:51.787Z,31.57
2022-12-04T14:30:45.525Z,32.60
2022-12-04T14:33:20.723Z,31.50
2022-12-04T14:36:06.672Z,33.43
2022-12-04T14:38:34.550Z,28.50
2022-12-04T14:41:04.402Z,32.97
2022-12-04T14:43:39.780Z,27.07
2022-12-04T14:46:30.222Z,31.80
2022-12-04T14:49:36.415Z,31.90
2022-12-04T14:52:43.021Z,27.60
2022-12-04T14:55:26.678Z,31.93
2022-12-04T14:58:27.343Z,29.93
2022-12-04T15:00:56.329Z,29.73
2022-12-04T15:03:23.781Z,28.10
2022-12-04T15:05:52.346Z,28.50
2022-12-04T15:08:21.162Z,31.37
2022-12-04T15:11:10.054Z,32.57
2022-12-04T15:13:38.877Z,29.40
2022-12-04T15:16:20.179Z,31.07
2022-12-04T15:18:58.065Z,32.63
2022-12-04T15:21:36.506Z,24.40
2022-12-04T15:24:08.686Z,29.97
2022-12-04T15:26:37.600Z,30.83
2022-12-04T15:29:07.548Z,28.37
2022-12-04T15:31:41.084Z,31.63
2022-12-04T15:34:17.432Z,31.43
2022-12-04T15:37:16.835Z,30.77
2022-12-04T15:39:45.144Z,37.13
2022-12-04T15:42:44.397Z,38.03
2022-12-04T15:45:34.333Z,32.83
2022-12-04T15:48:02.225Z,33.37
2022-12-04T15:50:31.818Z,35.13
2022-12-04T15:53:25.478Z,39.70
2022-12-04T15:56:03.013Z,36.63
2022-12-04T15:58:59.136Z,39.37
2022-12-04T16:01:26.738Z,39.10
2022-12-04T16:03:56.359Z,43.30
2022-12-04T16:06:29.213Z,39.23
2022-12-04T16:09:15.401Z,38.30
2022-12-04T16:11:45.256Z,40.43
2022-12-04T16:14:16.728Z,43.10
2022-12-04T16:17:06.582Z,38.40
2022-12-04T16:19:42.511Z,34.97
2022-12-04T16:22:19.314Z,32.93
2022-12-04T16:24:48.160Z,39.13
2022-12-04T16:27:20.561Z,38.33
2022-12-04T16:29:47.925Z,33.73
2022-12-04T16:32:21.244Z,37.10
2022-12-04T16:34:49.757Z,39.37
2022-12-04T16:37:20.036Z,36.43
2022-12-04T16:39:48.087Z,36.40
2022-12-04T16:42:22.207Z,34.10
2022-12-04T16:44:49.763Z,34.17
2022-12-04T16:47:19.668Z,39.00
2022-12-04T16:49:50.655Z,34.93
2022-12-04T16:52:18.892Z,36.03
2022-12-04T16:54:46.279Z,34.40
2022-12-04T16:57:13.510Z,31.80
2022-12-04T16:59:41.395Z,40.37
2022-12-04T17:02:17.942Z,39.10
2022-12-04T17:04:45.889Z,48.30
2022-12-04T17:07:16.346Z,41.47
2022-12-04T17:09:43.582Z,40.10
2022-12-04T17:12:11.489Z,36.73
2022-12-04T17:14:39.409Z,37.43
2022-12-04T17:17:06.341Z,40.87
2022-12-04T17:19:35.554Z,46.97
2022-12-04T17:22:05.199Z,41.17
2022-12-04T17:24:37.857Z,42.20
2022-12-04T17:27:08.125Z,41.23
2022-12-04T17:29:36.220Z,46.30
2022-12-04T17:32:03.977Z,45.27
2022-12-04T17:34:31.565Z,43.83
2022-12-04T17:36:58.932Z,42.50
2022-12-04T17:39:26.676Z,45.30
2022-12-04T17:41:53.817Z,45.30
2022-12-04T17:44:21.395Z,42.73
2022-12-04T17:46:49.847Z,45.70
2022-12-04T17:49:17.423Z,42.33
2022-12-04T17:51:46.642Z,38.37
2022-12-04T17:54:14.119Z,38.20
2022-12-04T17:56:47.480Z,44.70
2022-12-04T17:59:16.116Z,42.83
2022-12-04T18:01:48.458Z,40.03
2022-12-04T18:04:22.727Z,40.93
2022-12-04T18:06:50.290Z,36.73
2022-12-04T18:09:17.951Z,39.80
2022-12-04T18:11:47.805Z,41.83
2022-12-04T18:14:18.378Z,39.80
2022-12-04T18:16:52.995Z,43.23
2022-12-04T18:19:23.909Z,36.70
2022-12-04T18:21:51.877Z,37.67
2022-12-04T18:24:19.849Z,37.63
2022-12-04T18:26:49.142Z,35.93
2022-12-04T18:29:22.394Z,37.23
2022-12-04T18:31:54.247Z,33.83
2022-12-04T18:34:22.758Z,42.57
2022-12-04T18:36:50.899Z,39.00
2022-12-04T18:39:21.489Z,40.00
2022-12-04T18:41:49.410Z,42.50
2022-12-04T18:44:17.670Z,44.33
2022-12-04T18:46:45.367Z,39.97
2022-12-04T18:49:12.497Z,38.93
2022-12-04T18:51:44.599Z,38.67
2022-12-04T18:54:19.739Z,41.30
2022-12-04T18:56:47.262Z,34.07
2022-12-04T18:59:17.305Z,41.23
2022-12-04T19:01:45.112Z,35.33
2022-12-04T19:04:14.324Z,33.40
2022-12-04T19:06:44.302Z,39.63
2022-12-04T19:09:18.386Z,36.70
2022-12-04T19:11:46.100Z,33.03
2022-12-04T19:14:23.179Z,34.90
2022-12-04T19:16:51.441Z,35.37
2022-12-04T19:19:18.758Z,32.87
2022-12-04T19:21:46.101Z,37.10
2022-12-04T19:24:14.167Z,36.50
2022-12-04T19:26:41.624Z,36.80
2022-12-04T19:29:08.740Z,39.40
2022-12-04T19:31:39.044Z,33.10
2022-12-04T19:34:06.785Z,34.87
2022-12-04T19:36:35.198Z,36.27
2022-12-04T19:39:03.778Z,36.10
2022-12-04T19:41:34.558Z,33.20
2022-12-04T19:44:07.833Z,36.50
2022-12-04T19:46:42.985Z,33.07
2022-12-04T19:49:12.667Z,33.07
2022-12-04T19:51:40.304Z,32.37
2022-12-04T19:54:11.386Z,31.83
2022-12-04T19:56:38.332Z,34.00
2022-12-04T19:59:07.366Z,33.80
2022-12-04T20:01:35.751Z,38.87
2022-12-04T20:04:05.848Z,31.80
2022-12-04T20:06:51.177Z,31.50
2022-12-04T20:09:22.118Z,34.27
2022-12-04T20:11:50.731Z,34.60
2022-12-04T20:14:18.973Z,32.70
2022-12-04T20:16:47.637Z,32.00
2022-12-04T20:19:17.152Z,36.70
2022-12-04T20:21:46.233Z,37.57
2022-12-04T20:24:16.182Z,30.20
2022-12-04T20:26:44.639Z,34.27
2022-12-04T20:29:14.099Z,31.40
2022-12-04T20:31:44.453Z,32.10
2022-12-04T20:34:19.191Z,33.50
2022-12-04T20:36:48.344Z,32.40
2022-12-04T20:39:16.729Z,35.30
2022-12-04T20:41:47.771Z,34.20
2022-12-04T20:44:19.006Z,29.07
2022-12-04T20:46:46.382Z,37.40
2022-12-04T20:49:21.771Z,33.27
2022-12-04T20:51:51.180Z,35.60
2022-12-04T20:54:19.742Z,35.07
2022-12-04T20:56:49.025Z,28.20
2022-12-04T20:59:18.252Z,27.10
2022-12-04T21:01:45.761Z,29.10
2022-12-04T21:04:13.270Z,34.67
2022-12-04T21:06:41.796Z,29.43
2022-12-04T21:09:15.304Z,27.97
2022-12-04T21:11:45.603Z,31.90
2022-12-04T21:14:51.201Z,32.53
2022-12-04T21:17:19.746Z,31.40
2022-12-04T21:19:50.296Z,29.03
2022-12-04T21:22:18.849Z,31.23
2022-12-04T21:24:46.002Z,30.13
2022-12-04T21:27:19.113Z,29.63
2022-12-04T21:29:48.859Z,28.47
2022-12-04T21:32:20.051Z,34.00
2022-12-04T21:34:47.452Z,30.97
2022-12-04T21:37:14.633Z,34.30
2022-12-04T21:39:42.823Z,38.30
2022-12-04T21:42:28.382Z,32.30
2022-12-04T21:44:55.501Z,31.73
2022-12-04T21:47:22.923Z,35.10
2022-12-04T21:49:49.839Z,38.93
2022-12-04T21:52:17.868Z,33.03
2022-12-04T21:54:44.975Z,27.70
2022-12-04T21:57:12.112Z,31.50
2022-12-04T21:59:39.093Z,30.43
2022-12-04T22:02:06.160Z,27.27
2022-12-04T22:04:33.558Z,27.10
2022-12-04T22:07:02.069Z,29.83
2022-12-04T22:09:29.150Z,30.07
2022-12-04T22:11:56.367Z,24.23
2022-12-04T22:14:23.387Z,28.13
2022-12-04T22:16:51.951Z,30.83
2022-12-04T22:19:19.292Z,31.63
2022-12-04T22:21:46.589Z,28.30
2022-12-04T22:24:13.535Z,27.60
2022-12-04T22:26:40.584Z,25.77
2022-12-04T22:29:41.472Z,24.67
2022-12-04T22:31:55.967Z,25.73
2022-12-04T22:34:23.520Z,24.93
2022-12-04T22:36:51.040Z,28.33
2022-12-04T22:39:19.107Z,28.07
2022-12-04T22:41:46.326Z,26.13
2022-12-04T22:44:13.406Z,29.30
2022-12-04T22:46:40.459Z,30.00
2022-12-04T22:49:08.818Z,25.37
2022-12-04T22:51:36.228Z,22.87
2022-12-04T22:54:03.235Z,25.70
2022-12-04T22:56:32.180Z,25.97
2022-12-04T22:59:00.552Z,26.50
2022-12-04T23:01:29.871Z,29.17
2022-12-04T23:03:57.629Z,27.23
2022-12-04T23:06:26.836Z,25.43
2022-12-04T23:09:03.737Z,26.23
2022-12-04T23:11:30.920Z,26.70
2022-12-04T23:14:01.563Z,27.50
2022-12-04T23:16:32.853Z,27.70
2022-12-04T23:19:00.018Z,27.63
2022-12-04T23:21:28.332Z,31.60
2022-12-04T23:23:56.413Z,29.03
2022-12-04T23:26:30.584Z,27.93
2022-12-04T23:28:57.762Z,29.53
2022-12-04T23:31:26.009Z,29.47
2022-12-04T23:33:53.426Z,27.00
2022-12-04T23:36:20.902Z,29.57
2022-12-04T23:38:48.418Z,28.10
2022-12-04T23:41:29.729Z,29.00
2022-12-04T23:43:58.200Z,33.90
2022-12-04T23:46:31.152Z,31.27
2022-12-04T23:48:59.346Z,30.27
2022-12-04T23:51:27.035Z,32.60
2022-12-04T23:53:54.253Z,27.07
2022-12-04T23:56:26.736Z,31.33
2022-12-04T23:58:56.939Z,29.80
